KEKN/EKN METAR and TAF weather

Enter ICAO airport designator
Station Type Date Time Source
KEKN METAR 2020/01/23 08:51 UTC NOAA

KEKN 230851Z AUTO 00000KT 9SM CLR M06/M09 A3026 RMK AO2 SLP271 I3001 T10611089 58010 $


Station Type Date Time Source
KEKN Decoded METAR 2020/01/23 08:51 UTC NOAA

JENNINGS RANDOLPH FIELD, WV, United States (KEKN) 38-53N 079-51W 603M
Jan 23, 2020 - 03:51 AM EST / 2020.01.23 0851 UTC
Wind: Calm:0
Visibility: 9 mile(s):0
Sky conditions: clear
Temperature: 21.0 F (-6.1 C)
Dew Point: 16.0 F (-8.9 C)
Relative Humidity: 80%
Pressure (altimeter): 30.26 in. Hg (1024 hPa)
Pressure tendency: 0.03 inches (1.0 hPa) lower than three hours ago
ob: KEKN 230851Z AUTO 00000KT 9SM CLR M06/M09 A3026 RMK AO2 SLP271 I3001 T10611089 58010
cycle: 9

Station Type Date Time Source
KEKN TAF 2020/01/23 09:12 UTC NOAA

TAF
AMD KEKN 230911Z 2309/2406 00000KT P6SM BKN250
FM231800 VRB03KT P6SM OVC200

Example: see airport list